createdAt,value
2023-04-05T00:03:12.770Z,9.12
2023-04-05T00:07:16.609Z,9.11
2023-04-05T00:11:16.478Z,9.11
2023-04-05T00:15:15.067Z,9.27
2023-04-05T00:19:16.374Z,9.29
2023-04-05T00:23:19.007Z,9.35
2023-04-05T00:27:17.317Z,9.26
2023-04-05T00:31:20.171Z,9.20
2023-04-05T00:35:19.482Z,9.20
2023-04-05T00:39:20.526Z,9.21
2023-04-05T00:43:24.115Z,9.22
2023-04-05T00:47:23.565Z,9.28
2023-04-05T00:51:27.038Z,9.34
2023-04-05T00:55:26.550Z,9.37
2023-04-05T00:59:30.769Z,9.45
2023-04-05T01:03:30.556Z,9.47
2023-04-05T01:07:33.995Z,9.36
2023-04-05T01:11:33.776Z,9.47
2023-04-05T01:15:37.286Z,9.48
2023-04-05T01:19:36.663Z,9.56
2023-04-05T01:23:39.618Z,9.51
2023-04-05T01:27:39.560Z,9.51
2023-04-05T01:31:42.688Z,9.62
2023-04-05T01:35:41.678Z,9.68
2023-04-05T01:39:45.111Z,9.72
2023-04-05T01:43:44.716Z,9.75
2023-04-05T01:47:48.185Z,9.86
2023-04-05T01:51:54.384Z,9.79
2023-04-05T01:55:54.712Z,9.70
2023-04-05T01:59:57.606Z,9.74
2023-04-05T02:03:57.870Z,9.81
2023-04-05T02:08:02.304Z,9.58
2023-04-05T02:12:03.002Z,9.62
2023-04-05T02:16:06.794Z,9.74
2023-04-05T02:20:06.637Z,9.73
2023-04-05T02:24:10.323Z,9.79
2023-04-05T02:28:11.870Z,9.87
2023-04-05T02:32:14.680Z,9.84
2023-04-05T02:36:18.749Z,9.85
2023-04-05T02:40:21.780Z,9.90
2023-04-05T02:44:21.892Z,9.84
2023-04-05T02:48:29.712Z,9.77
2023-04-05T02:52:29.636Z,9.87
2023-04-05T02:56:32.726Z,9.94
2023-04-05T03:00:32.713Z,9.83
2023-04-05T03:04:36.247Z,9.89
2023-04-05T03:08:35.907Z,9.88
2023-04-05T03:12:39.309Z,9.94
2023-04-05T03:16:40.331Z,10.00
2023-04-05T03:20:53.427Z,9.94
2023-04-05T03:24:54.818Z,10.03
2023-04-05T03:28:57.884Z,10.03
2023-04-05T03:33:02.992Z,9.99
2023-04-05T03:37:27.297Z,9.96
2023-04-05T03:41:38.992Z,9.99
2023-04-05T03:45:42.459Z,10.02
2023-04-05T03:49:41.903Z,10.18
2023-04-05T03:53:45.488Z,10.07
2023-04-05T03:57:45.772Z,10.07
2023-04-05T04:01:57.962Z,10.25
2023-04-05T04:05:57.910Z,10.33
2023-04-05T04:10:01.306Z,10.38
2023-04-05T04:14:00.696Z,10.47
2023-04-05T04:18:13.000Z,10.58
2023-04-05T04:22:32.976Z,10.71
2023-04-05T04:26:50.274Z,10.80
2023-04-05T04:31:08.889Z,11.00
2023-04-05T04:35:51.236Z,10.97
2023-04-05T04:40:24.292Z,11.14
2023-04-05T04:44:55.509Z,11.08
2023-04-05T04:48:59.980Z,10.97
2023-04-05T04:53:07.279Z,11.04
2023-04-05T04:57:07.125Z,11.05
2023-04-05T05:01:07.574Z,10.93
2023-04-05T05:05:06.383Z,10.98
2023-04-05T05:09:05.514Z,11.28
2023-04-05T05:12:58.178Z,11.55
2023-04-05T05:16:45.039Z,11.52
2023-04-05T05:20:33.651Z,11.69
2023-04-05T05:24:20.253Z,11.73
2023-04-05T05:28:12.741Z,11.77
2023-04-05T05:32:06.217Z,11.92
2023-04-05T05:36:02.917Z,12.06
2023-04-05T05:40:03.540Z,11.29
2023-04-05T05:44:00.426Z,10.96
2023-04-05T05:48:01.368Z,11.34
2023-04-05T05:51:58.077Z,11.62
2023-04-05T05:55:59.131Z,11.88
2023-04-05T05:59:55.094Z,12.11
2023-04-05T06:03:58.200Z,12.32
2023-04-05T06:07:55.430Z,12.51
2023-04-05T06:11:57.165Z,12.72
2023-04-05T06:15:52.254Z,12.98
2023-04-05T06:19:53.188Z,13.18
2023-04-05T06:23:57.204Z,13.33
2023-04-05T06:27:54.342Z,13.48
2023-04-05T06:31:55.168Z,13.65
2023-04-05T06:35:48.122Z,13.83
2023-04-05T06:39:28.002Z,13.95
2023-04-05T06:43:21.855Z,14.05
2023-04-05T06:47:00.915Z,14.03
2023-04-05T06:50:54.309Z,14.05
2023-04-05T06:54:54.857Z,14.15
2023-04-05T06:58:49.387Z,14.42
2023-04-05T07:02:49.777Z,14.63
2023-04-05T07:06:46.335Z,14.91
2023-04-05T07:10:47.876Z,15.15
2023-04-05T07:14:44.387Z,15.39
2023-04-05T07:18:45.840Z,15.55
2023-04-05T07:22:42.410Z,15.76
2023-04-05T07:26:37.404Z,15.90
2023-04-05T07:30:41.159Z,16.05
2023-04-05T07:34:38.291Z,15.47
2023-04-05T07:38:41.878Z,15.31
2023-04-05T07:42:39.614Z,14.93
2023-04-05T07:46:40.572Z,14.92
2023-04-05T07:50:37.575Z,14.96
2023-04-05T07:54:31.890Z,15.03
2023-04-05T07:58:28.610Z,15.02
2023-04-05T08:02:23.013Z,15.15
2023-04-05T08:06:19.458Z,15.25
2023-04-05T08:10:14.217Z,15.19
2023-04-05T08:14:12.873Z,15.31
2023-04-05T08:18:18.600Z,15.49
2023-04-05T08:22:11.639Z,15.61
2023-04-05T08:26:12.495Z,15.65
2023-04-05T08:30:09.669Z,15.49
2023-04-05T08:34:11.616Z,15.60
2023-04-05T08:38:11.809Z,15.79
2023-04-05T08:42:12.566Z,15.98
2023-04-05T08:46:09.681Z,16.15
2023-04-05T08:50:10.319Z,16.23
2023-04-05T08:53:57.602Z,16.53
2023-04-05T08:57:44.163Z,16.51
2023-04-05T09:01:30.774Z,16.92
2023-04-05T09:05:17.457Z,17.31
2023-04-05T09:09:03.895Z,17.31
2023-04-05T09:12:56.688Z,17.22
2023-04-05T09:16:51.533Z,17.12
2023-04-05T09:20:52.372Z,17.33
2023-04-05T09:24:50.106Z,17.68
2023-04-05T09:28:54.396Z,18.01
2023-04-05T09:32:51.677Z,17.86
2023-04-05T09:36:52.956Z,18.06
2023-04-05T09:40:49.565Z,18.03
2023-04-05T09:44:56.657Z,18.12
2023-04-05T09:48:50.217Z,18.38
2023-04-05T09:52:36.567Z,18.52
2023-04-05T09:56:33.300Z,18.64
2023-04-05T10:00:38.924Z,18.59
2023-04-05T10:04:36.791Z,18.25
2023-04-05T10:08:35.520Z,17.86
2023-04-05T10:12:32.250Z,17.69
2023-04-05T10:16:33.607Z,17.65
2023-04-05T10:20:30.535Z,17.85
2023-04-05T10:24:32.278Z,18.16
2023-04-05T10:28:34.273Z,18.49
2023-04-05T10:32:31.191Z,18.49
2023-04-05T10:36:31.926Z,18.35
2023-04-05T10:40:28.875Z,18.24
2023-04-05T10:44:29.959Z,18.28
2023-04-05T10:48:27.167Z,18.12
2023-04-05T10:52:29.335Z,18.43
2023-04-05T10:56:25.621Z,18.61
2023-04-05T11:00:26.280Z,18.52
2023-04-05T11:04:23.686Z,18.53
2023-04-05T11:08:24.703Z,18.47
2023-04-05T11:12:29.638Z,18.32
2023-04-05T11:16:26.662Z,18.33
2023-04-05T11:20:27.979Z,18.25
2023-04-05T11:24:24.757Z,18.13
2023-04-05T11:28:25.548Z,18.27
2023-04-05T11:32:22.685Z,18.42
2023-04-05T11:36:23.252Z,18.62
2023-04-05T11:40:19.509Z,18.86
2023-04-05T11:44:20.507Z,19.14
2023-04-05T11:48:17.562Z,19.36
2023-04-05T11:52:18.235Z,19.51
2023-04-05T11:56:15.184Z,19.62
2023-04-05T12:00:15.955Z,19.64
2023-04-05T12:04:32.771Z,19.79
2023-04-05T12:08:33.686Z,19.64
2023-04-05T12:12:31.018Z,19.40
2023-04-05T12:16:31.833Z,18.92
2023-04-05T12:20:28.662Z,18.81
2023-04-05T12:24:29.240Z,18.67
2023-04-05T12:28:30.047Z,18.51
2023-04-05T12:32:26.716Z,18.43
2023-04-05T12:36:25.266Z,18.26
2023-04-05T12:40:25.985Z,18.01
2023-04-05T12:44:26.918Z,18.05
2023-04-05T12:48:24.227Z,18.14
2023-04-05T12:52:24.764Z,18.23
2023-04-05T12:56:11.533Z,18.19
2023-04-05T12:59:59.211Z,18.12
2023-04-05T13:03:46.368Z,17.89
2023-04-05T13:07:34.875Z,18.03
2023-04-05T13:11:20.901Z,18.07
2023-04-05T13:15:17.712Z,18.06
2023-04-05T13:19:12.525Z,17.96
2023-04-05T13:23:13.343Z,17.82
2023-04-05T13:27:09.949Z,17.67
2023-04-05T13:31:10.782Z,17.66
2023-04-05T13:35:07.884Z,17.67
2023-04-05T13:39:08.270Z,17.61
2023-04-05T13:43:05.086Z,17.63
2023-04-05T13:47:06.292Z,17.47
2023-04-05T13:51:03.096Z,17.32
2023-04-05T13:54:49.412Z,17.32
2023-04-05T13:58:49.217Z,17.35
2023-04-05T14:02:35.791Z,17.29
2023-04-05T14:06:27.910Z,17.32
2023-04-05T14:10:21.053Z,17.40
2023-04-05T14:14:13.755Z,17.40
2023-04-05T14:18:14.255Z,17.42
2023-04-05T14:22:12.254Z,17.43
2023-04-05T14:26:13.868Z,17.42
2023-04-05T14:30:10.033Z,17.20
2023-04-05T14:34:10.822Z,17.20
2023-04-05T14:38:10.353Z,17.22
2023-04-05T14:42:11.771Z,17.13
2023-04-05T14:46:02.743Z,17.05
2023-04-05T14:49:49.569Z,17.10
2023-04-05T14:53:36.278Z,16.98
2023-04-05T14:57:22.378Z,16.83
2023-04-05T15:01:08.685Z,16.79
2023-04-05T15:04:55.273Z,16.80
2023-04-05T15:08:47.639Z,16.65
2023-04-05T15:12:44.075Z,16.66
2023-04-05T15:16:41.597Z,16.69
2023-04-05T15:20:42.810Z,16.79
2023-04-05T15:24:40.187Z,16.82
2023-04-05T15:28:41.495Z,16.75
2023-04-05T15:32:37.783Z,16.70
2023-04-05T15:36:37.801Z,16.67
2023-04-05T15:40:38.302Z,16.67
2023-04-05T15:44:43.217Z,16.66
2023-04-05T15:48:29.931Z,16.64
2023-04-05T15:52:16.714Z,16.66
2023-04-05T15:56:03.595Z,16.75
2023-04-05T15:59:50.104Z,16.76
2023-04-05T16:04:04.711Z,16.76
2023-04-05T16:08:11.313Z,16.77
2023-04-05T16:12:08.344Z,16.76
2023-04-05T16:16:09.880Z,16.74
2023-04-05T16:20:07.091Z,16.75
2023-04-05T16:24:08.751Z,16.80
2023-04-05T16:28:05.358Z,16.76
2023-04-05T16:32:03.606Z,16.80
2023-04-05T16:35:56.266Z,16.74
2023-04-05T16:39:59.571Z,16.87
2023-04-05T16:43:54.534Z,16.89
2023-04-05T16:48:01.994Z,16.69
2023-04-05T16:52:01.288Z,16.41
2023-04-05T16:56:04.116Z,16.26
2023-04-05T17:00:04.321Z,16.10
2023-04-05T17:04:26.756Z,16.21
2023-04-05T17:08:30.275Z,16.29
2023-04-05T17:12:33.953Z,16.37
2023-04-05T17:16:36.237Z,16.35
2023-04-05T17:20:39.282Z,16.26
2023-04-05T17:24:39.372Z,16.27
2023-04-05T17:28:46.345Z,16.31
2023-04-05T17:32:49.323Z,16.28
2023-04-05T17:36:52.195Z,16.23
2023-04-05T17:40:52.229Z,16.17
2023-04-05T17:44:56.829Z,16.07
2023-04-05T17:48:55.287Z,16.03
2023-04-05T17:52:56.118Z,15.93
2023-04-05T17:56:53.588Z,15.87
2023-04-05T18:00:39.978Z,15.87
2023-04-05T18:04:26.710Z,15.72
2023-04-05T18:08:18.876Z,15.72
2023-04-05T18:12:13.684Z,15.69
2023-04-05T18:16:14.136Z,15.56
2023-04-05T18:20:11.548Z,15.47
2023-04-05T18:24:15.489Z,15.54
2023-04-05T18:28:21.931Z,15.56
2023-04-05T18:32:23.694Z,15.31
2023-04-05T18:36:20.390Z,15.33
2023-04-05T18:40:21.847Z,15.35
2023-04-05T18:44:10.854Z,15.30
2023-04-05T18:47:57.833Z,15.35
2023-04-05T18:51:44.011Z,15.30
2023-04-05T18:55:32.830Z,15.22
2023-04-05T18:59:19.903Z,15.27
2023-04-05T19:03:11.930Z,15.35
2023-04-05T19:07:04.528Z,15.36
2023-04-05T19:10:58.241Z,15.15
2023-04-05T19:14:59.052Z,15.05
2023-04-05T19:18:56.590Z,15.02
2023-04-05T19:23:01.111Z,14.96
2023-04-05T19:26:57.417Z,14.92
2023-04-05T19:30:58.191Z,14.90
2023-04-05T19:34:55.520Z,14.83
2023-04-05T19:38:57.355Z,14.45
2023-04-05T19:42:51.936Z,14.24
2023-04-05T19:46:38.189Z,14.22
2023-04-05T19:50:36.707Z,14.03
2023-04-05T19:54:26.691Z,13.95
2023-04-05T19:58:15.816Z,13.85
2023-04-05T20:02:03.971Z,13.56
2023-04-05T20:05:50.260Z,13.49
2023-04-05T20:09:43.747Z,13.43
2023-04-05T20:13:44.726Z,13.32
2023-04-05T20:17:41.707Z,13.25
2023-04-05T20:21:45.216Z,13.20
2023-04-05T20:25:41.509Z,13.05
2023-04-05T20:29:42.758Z,12.91
2023-04-05T20:33:42.843Z,12.94
2023-04-05T20:37:41.421Z,12.79
2023-04-05T20:41:45.377Z,12.76
2023-04-05T20:45:47.557Z,12.75
2023-04-05T20:49:48.162Z,12.67
2023-04-05T20:53:48.675Z,12.53
2023-04-05T20:57:54.688Z,12.54
2023-04-05T21:01:54.753Z,12.67
2023-04-05T21:05:56.383Z,12.61
2023-04-05T21:09:55.524Z,12.72
2023-04-05T21:13:59.613Z,12.98
2023-04-05T21:17:56.796Z,13.19
2023-04-05T21:21:59.086Z,12.99
2023-04-05T21:25:55.676Z,12.90
2023-04-05T21:29:58.599Z,13.02
2023-04-05T21:33:53.350Z,13.05
2023-04-05T21:37:57.817Z,13.15
2023-04-05T21:42:00.629Z,13.26
2023-04-05T21:46:03.747Z,13.08
2023-04-05T21:50:02.592Z,13.07
2023-04-05T21:54:05.796Z,13.03
2023-04-05T21:58:02.764Z,13.07
2023-04-05T22:02:00.960Z,13.17
2023-04-05T22:05:55.643Z,13.19
2023-04-05T22:10:01.782Z,13.17
2023-04-05T22:14:02.857Z,13.11
2023-04-05T22:18:05.180Z,13.14
2023-04-05T22:22:03.869Z,13.17
2023-04-05T22:26:04.130Z,13.15
2023-04-05T22:30:03.451Z,13.03
2023-04-05T22:34:03.111Z,12.92
2023-04-05T22:38:03.528Z,12.88
2023-04-05T22:42:06.233Z,12.87
2023-04-05T22:46:02.916Z,12.80
2023-04-05T22:50:06.908Z,12.75
2023-04-05T22:53:47.747Z,12.73
2023-04-05T22:57:48.768Z,12.73
2023-04-05T23:01:49.680Z,12.69
2023-04-05T23:05:44.591Z,12.48
2023-04-05T23:09:51.452Z,12.51
2023-04-05T23:13:50.783Z,12.45
2023-04-05T23:17:53.811Z,12.56
2023-04-05T23:21:50.852Z,12.55
2023-04-05T23:25:54.757Z,12.59
2023-04-05T23:29:54.967Z,12.55
2023-04-05T23:33:53.896Z,12.58
2023-04-05T23:37:50.933Z,12.26
2023-04-05T23:42:00.518Z,12.15
2023-04-05T23:45:58.813Z,12.12
2023-04-05T23:50:01.888Z,12.16
2023-04-05T23:54:00.799Z,12.26
2023-04-05T23:58:03.336Z,12.32
